Time;durP1;ratioP1;P1;durP2;ratioP2;P2;SDS_P1;SDS_P2;PMS_P1;PMS_P2;Temp;Humidity;BMP_temperature;BMP_pressure;BME280_temperature;BME280_humidity;BME280_pressure;Samples;Min_cycle;Max_cycle;Signal;HPM_P1;HPM_P2
2022/06/05 00:02:32;;;;;;;18.42;10.45;;;12.10;99.90;;;;;;5051806;28;20048;-62
2022/06/05 00:05:12;;;;;;;17.60;10.30;;;12.00;99.90;;;;;;5018004;28;20407;-66
2022/06/05 00:08:06;;;;;;;15.13;10.50;;;11.90;99.90;;;;;;5051650;28;20040;-61
2022/06/05 00:10:39;;;;;;;17.20;11.32;;;11.90;99.90;;;;;;5034088;28;20072;-63
2022/06/05 00:13:28;;;;;;;19.70;11.48;;;11.90;99.90;;;;;;5034352;28;20553;-64
2022/06/05 00:15:54;;;;;;;17.10;10.80;;;11.90;99.90;;;;;;5018509;28;20091;-63
2022/06/05 00:18:19;;;;;;;15.23;10.10;;;11.90;99.90;;;;;;5017806;28;20403;-63
2022/06/05 00:20:45;;;;;;;19.15;10.90;;;12.00;99.90;;;;;;5052033;28;20079;-63
2022/06/05 00:23:12;;;;;;;19.48;9.82;;;;;;;;;;5051935;28;20080;-63
2022/06/05 00:25:50;;;;;;;14.68;9.88;;;11.90;99.90;;;;;;5017664;28;20503;-63
2022/06/05 00:28:37;;;;;;;16.27;9.85;;;12.00;99.90;;;;;;5051592;28;20090;-63
2022/06/05 00:31:32;;;;;;;19.13;11.00;;;12.00;99.90;;;;;;5033707;28;20053;-63
2022/06/05 00:33:58;;;;;;;14.85;9.18;;;11.90;99.90;;;;;;5051013;28;20056;-63
2022/06/05 00:36:42;;;;;;;15.25;10.38;;;11.80;99.90;;;;;;5017647;28;20483;-63
2022/06/05 00:39:26;;;;;;;13.07;9.73;;;11.70;99.90;;;;;;5033856;28;20055;-62
2022/06/05 00:42:03;;;;;;;17.90;9.45;;;11.80;99.90;;;;;;5036301;28;20052;-63
2022/06/05 00:44:37;;;;;;;14.18;10.38;;;11.70;99.90;;;;;;5038100;28;20324;-63
2022/06/05 00:47:04;;;;;;;15.65;9.05;;;11.70;99.90;;;;;;5044725;28;20442;-63
2022/06/05 00:49:38;;;;;;;22.25;10.73;;;11.70;99.90;;;;;;5038113;28;20414;-63
2022/06/05 00:52:05;;;;;;;18.48;10.25;;;11.60;99.90;;;;;;5037368;28;20049;-59
2022/06/05 00:54:31;;;;;;;18.60;10.45;;;11.70;99.90;;;;;;5054881;28;20025;-63
2022/06/05 00:56:57;;;;;;;15.68;9.85;;;11.80;99.90;;;;;;5051990;28;20421;-63
2022/06/05 00:59:23;;;;;;;15.95;10.88;;;11.30;99.90;;;;;;5037581;28;20095;-63
2022/06/05 01:01:51;;;;;;;17.67;9.88;;;11.60;99.90;;;;;;5030534;28;20119;-63
2022/06/05 01:04:18;;;;;;;16.98;10.25;;;11.60;99.90;;;;;;5035089;28;20128;-61
2022/06/05 01:06:44;;;;;;;15.88;9.95;;;;;;;;;;5026670;28;20112;-63
2022/06/05 01:09:09;;;;;;;15.63;9.90;;;11.70;99.90;;;;;;5037282;28;20087;-63
2022/06/05 01:12:10;;;;;;;18.38;10.18;;;11.60;99.90;;;;;;5037287;28;20547;-63
2022/06/05 01:14:49;;;;;;;17.55;9.88;;;11.70;99.90;;;;;;5037760;28;20026;-64
2022/06/05 01:17:42;;;;;;;17.08;10.23;;;11.60;99.90;;;;;;5035501;28;20048;-63
2022/06/05 01:20:18;;;;;;;16.48;10.00;;;11.60;99.90;;;;;;5030291;28;20419;-63
2022/06/05 01:23:01;;;;;;;13.30;9.85;;;11.80;99.90;;;;;;5018248;28;20049;-63
2022/06/05 01:26:15;;;;;;;15.93;10.43;;;11.70;99.90;;;;;;5037458;28;20049;-63
2022/06/05 01:29:06;;;;;;;14.18;11.50;;;11.70;99.90;;;;;;5042082;28;20523;-63
2022/06/05 01:31:43;;;;;;;14.40;10.13;;;11.70;99.90;;;;;;5009157;28;20053;-63
2022/06/05 01:34:38;;;;;;;11.98;9.30;;;11.60;99.90;;;;;;5017624;28;20033;-64
2022/06/05 01:37:18;;;;;;;16.98;10.40;;;11.70;99.90;;;;;;5047686;28;20041;-62
2022/06/05 01:40:04;;;;;;;13.15;9.95;;;11.60;99.90;;;;;;5011690;28;20067;-61
2022/06/05 01:42:38;;;;;;;16.35;10.00;;;11.80;99.90;;;;;;5000982;28;20065;-63
2022/06/05 01:45:16;;;;;;;18.52;9.48;;;11.70;99.90;;;;;;5002506;28;20056;-63
2022/06/05 01:47:45;;;;;;;17.83;10.10;;;;;;;;;;5034583;28;20041;-61
2022/06/05 01:50:28;;;;;;;15.77;10.57;;;11.70;99.90;;;;;;5016858;28;20073;-63
2022/06/05 01:53:03;;;;;;;15.10;9.73;;;11.50;99.90;;;;;;5017133;28;20049;-63
2022/06/05 01:55:36;;;;;;;18.30;9.27;;;11.70;99.90;;;;;;5034611;28;20087;-63
2022/06/05 01:58:05;;;;;;;16.08;9.90;;;11.60;99.90;;;;;;5016665;28;20049;-63
2022/06/05 02:00:31;;;;;;;20.17;10.02;;;11.70;99.90;;;;;;5020376;28;20033;-63
2022/06/05 02:03:05;;;;;;;13.82;9.38;;;11.40;99.90;;;;;;5045925;28;20384;-63
2022/06/05 02:05:38;;;;;;;16.02;10.70;;;11.70;99.90;;;;;;5035726;28;20084;-63
2022/06/05 02:08:40;;;;;;;15.88;10.43;;;11.50;99.90;;;;;;5019806;28;20484;-63
2022/06/05 02:11:25;;;;;;;16.73;9.82;;;11.60;99.90;;;;;;5003738;28;20060;-63
2022/06/05 02:13:56;;;;;;;15.60;10.18;;;11.60;99.90;;;;;;5048440;28;20044;-63
2022/06/05 02:16:22;;;;;;;14.18;9.93;;;11.40;99.90;;;;;;5016669;28;20409;-63
2022/06/05 02:18:47;;;;;;;17.60;10.32;;;11.60;99.90;;;;;;5016249;28;20053;-62
2022/06/05 02:21:14;;;;;;;14.63;10.98;;;11.50;99.90;;;;;;5038608;28;20036;-63
2022/06/05 02:23:40;;;;;;;16.65;10.52;;;11.60;99.90;;;;;;5036475;28;20047;-62
2022/06/05 02:26:09;;;;;;;23.25;11.65;;;11.60;99.90;;;;;;5039611;28;20056;-63
2022/06/05 02:28:36;;;;;;;15.93;11.25;;;11.80;99.90;;;;;;5044867;28;20046;-64
2022/06/05 02:31:25;;;;;;;16.58;10.52;;;11.50;99.90;;;;;;5017221;28;20084;-63
2022/06/05 02:34:06;;;;;;;15.27;10.50;;;11.50;99.90;;;;;;5053975;28;20490;-63
2022/06/05 02:36:55;;;;;;;14.60;10.13;;;11.60;99.90;;;;;;5030935;28;20402;-64
2022/06/05 02:39:23;;;;;;;21.48;11.82;;;11.50;99.90;;;;;;5034168;28;20155;-63
2022/06/05 02:41:54;;;;;;;21.13;11.57;;;11.60;99.90;;;;;;5015540;28;20415;-63
2022/06/05 02:44:33;;;;;;;18.10;11.27;;;11.70;99.90;;;;;;5016245;28;20164;-63
2022/06/05 02:46:58;;;;;;;18.75;11.15;;;;;;;;;;5030652;28;20408;-63
2022/06/05 02:49:42;;;;;;;16.88;11.30;;;11.70;99.90;;;;;;5035968;28;20037;-63
2022/06/05 02:52:08;;;;;;;16.40;10.88;;;11.50;99.90;;;;;;5015285;28;20116;-62
2022/06/05 02:54:40;;;;;;;18.60;11.80;;;11.50;99.90;;;;;;5046705;28;20094;-64
2022/06/05 02:57:06;;;;;;;17.38;11.48;;;11.60;99.90;;;;;;5015490;28;20046;-64
2022/06/05 02:59:32;;;;;;;17.52;10.38;;;;;;;;;;5045109;28;20082;-63
2022/06/05 03:04:42;;;;;;;20.08;11.95;;;11.70;99.90;;;;;;5032771;28;20403;-63
2022/06/05 03:07:08;;;;;;;15.93;10.50;;;11.70;99.90;;;;;;5015404;28;20045;-63
2022/06/05 03:09:34;;;;;;;18.00;12.02;;;11.70;99.90;;;;;;5039728;28;20044;-64
2022/06/05 03:11:59;;;;;;;19.55;10.85;;;11.70;99.90;;;;;;5034919;28;20041;-63
2022/06/05 03:14:26;;;;;;;21.05;12.02;;;;;;;;;;5034653;28;20083;-63
2022/06/05 03:16:52;;;;;;;14.10;10.55;;;11.60;99.90;;;;;;5022911;28;20045;-63
2022/06/05 03:19:18;;;;;;;15.93;10.57;;;11.70;99.90;;;;;;5018425;28;20108;-63
2022/06/05 03:21:44;;;;;;;18.02;11.45;;;;;;;;;;5035736;28;20490;-63
2022/06/05 03:24:10;;;;;;;17.63;11.27;;;;;;;;;;5046881;28;20041;-63
2022/06/05 03:26:37;;;;;;;15.98;11.63;;;11.60;99.90;;;;;;5034760;28;20037;-64
2022/06/05 03:29:03;;;;;;;19.80;12.15;;;11.70;99.90;;;;;;5040217;28;20116;-64
2022/06/05 03:31:29;;;;;;;17.70;11.73;;;11.70;99.90;;;;;;5017422;28;20479;-63
2022/06/05 03:33:55;;;;;;;16.45;10.80;;;11.80;99.90;;;;;;5024056;28;20121;-64
2022/06/05 03:36:21;;;;;;;17.50;12.00;;;11.80;99.90;;;;;;5032733;28;20442;-63
2022/06/05 03:38:47;;;;;;;23.40;12.57;;;11.90;99.90;;;;;;5033287;28;20059;-62
2022/06/05 03:41:17;;;;;;;22.15;13.07;;;11.70;99.90;;;;;;5014978;28;20081;-63
2022/06/05 03:43:43;;;;;;;17.35;12.18;;;11.80;99.90;;;;;;5033154;28;20112;-64
2022/06/05 03:46:11;;;;;;;21.30;12.57;;;11.80;99.90;;;;;;5040777;28;20545;-64
2022/06/05 03:48:37;;;;;;;20.85;11.98;;;11.90;99.90;;;;;;5014919;28;20045;-63
2022/06/05 03:51:09;;;;;;;25.73;12.43;;;11.70;99.90;;;;;;5032546;28;20072;-64
2022/06/05 03:53:35;;;;;;;17.42;11.80;;;;;;;;;;5015110;28;20094;-63
2022/06/05 03:56:01;;;;;;;20.17;12.40;;;11.90;99.90;;;;;;5011230;28;20140;-64
2022/06/05 03:58:27;;;;;;;19.52;12.65;;;;;;;;;;5012689;28;20135;-64
2022/06/05 04:00:53;;;;;;;24.58;13.43;;;11.80;99.90;;;;;;5012953;28;20563;-63
2022/06/05 04:03:19;;;;;;;23.67;13.93;;;;;;;;;;5022715;28;20080;-63
2022/06/05 04:05:45;;;;;;;21.20;11.77;;;;;;;;;;5027877;28;20077;-63
2022/06/05 04:08:14;;;;;;;26.00;12.32;;;11.80;99.90;;;;;;5011288;28;20110;-63
2022/06/05 04:10:40;;;;;;;19.25;12.05;;;11.90;99.90;;;;;;5028313;28;20052;-63
2022/06/05 04:13:06;;;;;;;21.15;13.10;;;;;;;;;;5027825;28;20059;-63
2022/06/05 04:15:38;;;;;;;25.15;13.05;;;12.00;99.90;;;;;;5025783;28;20050;-62
2022/06/05 04:18:03;;;;;;;18.33;11.18;;;12.20;99.90;;;;;;5013059;28;20045;-62
2022/06/05 04:20:29;;;;;;;21.13;12.88;;;;;;;;;;5025807;28;20041;-63
2022/06/05 04:22:55;;;;;;;18.02;11.68;;;;;;;;;;5025408;28;20134;-63
2022/06/05 04:25:21;;;;;;;18.52;13.15;;;12.20;99.90;;;;;;5025750;28;20416;-62
2022/06/05 04:27:47;;;;;;;19.08;13.18;;;;;;;;;;5025825;28;20045;-62
2022/06/05 04:30:13;;;;;;;21.92;12.27;;;;;;;;;;5027205;28;20051;-62
2022/06/05 04:32:39;;;;;;;21.80;12.55;;;;;;;;;;5025561;28;20077;-62
2022/06/05 04:35:06;;;;;;;17.58;11.32;;;12.50;99.90;;;;;;5027162;28;20112;-63
2022/06/05 04:37:33;;;;;;;19.65;12.45;;;;;;;;;;5025865;28;20376;-63
2022/06/05 04:39:59;;;;;;;18.38;12.35;;;;;;;;;;5025699;28;20049;-61
2022/06/05 04:42:24;;;;;;;21.45;13.05;;;12.60;99.90;;;;;;5025446;28;20045;-63
2022/06/05 04:44:50;;;;;;;20.55;12.30;;;;;;;;;;5025734;28;20046;-62
2022/06/05 04:47:16;;;;;;;18.80;12.52;;;12.50;99.90;;;;;;5025718;28;20053;-62
2022/06/05 04:49:42;;;;;;;21.63;12.30;;;;;;;;;;5027138;28;20403;-61
2022/06/05 04:52:08;;;;;;;19.15;12.85;;;;;;;;;;5022979;28;20041;-62
2022/06/05 04:54:34;;;;;;;19.02;11.02;;;;;;;;;;5008775;28;20052;-63
2022/06/05 04:57:00;;;;;;;17.65;12.45;;;12.80;99.90;;;;;;5035775;28;20511;-64
2022/06/05 04:59:26;;;;;;;27.92;12.32;;;;;;;;;;5023661;28;20049;-62
2022/06/05 05:01:51;;;;;;;18.45;11.55;;;;;;;;;;5042128;28;20131;-62
2022/06/05 05:04:18;;;;;;;20.92;11.50;;;;;;;;;;5042991;28;20037;-61
2022/06/05 05:06:44;;;;;;;18.52;12.43;;;12.90;99.90;;;;;;5026030;28;20052;-63
2022/06/05 05:09:11;;;;;;;18.92;12.80;;;13.00;99.90;;;;;;5044307;28;20885;-64
2022/06/05 05:11:37;;;;;;;22.33;12.40;;;12.80;99.90;;;;;;5033288;28;20037;-62
2022/06/05 05:14:03;;;;;;;23.27;11.75;;;;;;;;;;5026013;28;20036;-64
2022/06/05 05:16:30;;;;;;;17.65;12.05;;;13.00;99.90;;;;;;5026051;28;20041;-64
2022/06/05 05:18:56;;;;;;;16.92;11.35;;;13.10;99.90;;;;;;5041097;28;20041;-62
2022/06/05 05:21:23;;;;;;;17.48;11.90;;;13.00;99.90;;;;;;5025001;28;20439;-63
2022/06/05 05:23:50;;;;;;;15.07;11.82;;;13.00;99.90;;;;;;5037651;28;20042;-63
2022/06/05 05:26:40;;;;;;;20.02;12.05;;;13.10;99.90;;;;;;5022820;28;20083;-63
2022/06/05 05:29:06;;;;;;;16.25;12.40;;;13.20;99.90;;;;;;5028429;28;20049;-64
2022/06/05 05:31:36;;;;;;;20.48;11.82;;;13.20;99.90;;;;;;5043462;28;20087;-62
2022/06/05 05:34:02;;;;;;;18.23;11.77;;;;;;;;;;5033562;28;20038;-63
2022/06/05 05:36:28;;;;;;;20.33;11.70;;;13.30;99.90;;;;;;5040776;28;20088;-64
2022/06/05 05:44:25;;;;;;;20.23;11.43;;;13.50;99.90;;;;;;5032158;28;20080;-63
2022/06/05 05:46:51;;;;;;;18.98;11.95;;;;;;;;;;5033470;28;20128;-62
2022/06/05 05:49:18;;;;;;;21.50;11.52;;;;;;;;;;5013316;28;20116;-63
2022/06/05 05:51:44;;;;;;;16.52;10.82;;;13.70;99.90;;;;;;5016757;28;20045;-63
2022/06/05 05:54:10;;;;;;;17.38;11.43;;;13.80;99.90;;;;;;5009978;28;20037;-62
2022/06/05 05:56:37;;;;;;;15.85;11.20;;;13.90;99.90;;;;;;5026289;28;20490;-63
2022/06/05 05:59:03;;;;;;;19.48;11.40;;;14.10;99.90;;;;;;5046639;28;20080;-63
2022/06/05 06:01:29;;;;;;;15.88;10.88;;;13.90;99.90;;;;;;5028966;28;20048;-63
2022/06/05 06:03:55;;;;;;;13.77;10.68;;;;;;;;;;5013389;28;20056;-63
2022/06/05 06:06:30;;;;;;;16.55;11.30;;;14.00;99.90;;;;;;5030382;28;20381;-63
2022/06/05 06:08:55;;;;;;;;;;;14.30;99.90;;;;;;5031609;28;20042;-62
2022/06/05 06:11:22;;;;;;;18.15;10.88;;;14.20;99.90;;;;;;5030670;28;19991;-63
2022/06/05 06:13:48;;;;;;;17.85;11.13;;;14.30;99.90;;;;;;5031075;28;20037;-63
2022/06/05 06:16:13;;;;;;;15.75;11.35;;;14.30;99.90;;;;;;5050093;28;20090;-63
2022/06/05 06:18:39;;;;;;;15.07;10.85;;;14.30;99.90;;;;;;5039099;28;20068;-64
2022/06/05 06:21:05;;;;;;;15.30;10.32;;;;;;;;;;5030721;28;20045;-64
2022/06/05 06:23:31;;;;;;;13.43;9.60;;;14.50;99.90;;;;;;5031813;28;20041;-63
2022/06/05 06:25:56;;;;;;;16.50;11.10;;;14.60;99.90;;;;;;5049702;28;20029;-63
2022/06/05 06:28:22;;;;;;;15.25;10.60;;;14.60;99.90;;;;;;5054090;28;20065;-64
2022/06/05 06:30:48;;;;;;;17.73;10.18;;;14.60;99.90;;;;;;5054342;28;20033;-63
2022/06/05 06:33:14;;;;;;;19.42;10.95;;;14.80;99.90;;;;;;5054197;28;20050;-63
2022/06/05 06:35:40;;;;;;;15.77;10.02;;;14.70;99.90;;;;;;5054291;28;20467;-63
2022/06/05 06:38:05;;;;;;;16.33;10.85;;;16.40;99.90;;;;;;5039383;28;20033;-63
2022/06/05 06:40:33;;;;;;;15.75;10.18;;;14.80;99.90;;;;;;5036143;28;20123;-63
2022/06/05 06:42:59;;;;;;;15.75;10.75;;;15.00;99.90;;;;;;5050145;28;20049;-63
2022/06/05 06:45:25;;;;;;;16.02;9.88;;;14.90;99.90;;;;;;5047003;28;20041;-63
2022/06/05 06:47:50;;;;;;;16.08;11.27;;;15.00;99.90;;;;;;5043802;28;20122;-63
2022/06/05 06:50:17;;;;;;;17.85;10.95;;;14.90;99.90;;;;;;5031870;28;20052;-63
2022/06/05 06:52:43;;;;;;;12.57;10.00;;;15.10;99.90;;;;;;5049799;28;20049;-64
2022/06/05 06:55:12;;;;;;;15.45;10.60;;;15.10;99.90;;;;;;5031833;28;20047;-64
2022/06/05 06:57:38;;;;;;;16.67;10.30;;;15.20;99.90;;;;;;5049612;28;20052;-62
2022/06/05 07:00:05;;;;;;;18.92;10.70;;;15.20;99.90;;;;;;5049457;28;20159;-63
2022/06/05 07:02:31;;;;;;;14.48;10.82;;;15.40;99.90;;;;;;5030933;28;20048;-64
2022/06/05 07:04:56;;;;;;;14.55;9.68;;;15.40;99.90;;;;;;5044855;28;20040;-64
2022/06/05 07:07:22;;;;;;;13.85;10.75;;;15.40;99.90;;;;;;5034618;28;20045;-64
2022/06/05 07:09:48;;;;;;;14.45;10.75;;;15.50;99.90;;;;;;5014784;28;20037;-64
2022/06/05 07:12:14;;;;;;;12.60;9.75;;;15.70;99.90;;;;;;5052314;28;20494;-64
2022/06/05 07:14:39;;;;;;;12.63;10.35;;;15.80;99.90;;;;;;5018704;28;20040;-64
2022/06/05 07:17:05;;;;;;;14.18;10.10;;;15.80;99.90;;;;;;5035418;28;20037;-64
2022/06/05 07:19:30;;;;;;;14.02;9.32;;;16.10;99.90;;;;;;5050215;28;20445;-64
2022/06/05 07:21:56;;;;;;;14.13;10.00;;;16.20;99.90;;;;;;5047554;28;20034;-63
2022/06/05 07:24:21;;;;;;;14.98;10.00;;;18.10;99.90;;;;;;5019084;28;20044;-64
2022/06/05 07:26:48;;;;;;;13.75;10.30;;;16.40;99.90;;;;;;5018529;28;20383;-64
2022/06/05 07:29:14;;;;;;;12.48;10.13;;;18.20;99.90;;;;;;5035915;28;20042;-64
2022/06/05 07:31:40;;;;;;;18.48;9.15;;;16.80;99.90;;;;;;5047436;28;20083;-63
2022/06/05 07:34:08;;;;;;;12.80;9.27;;;16.80;99.90;;;;;;5047697;28;20032;-64
2022/06/05 07:36:34;;;;;;;12.07;9.38;;;16.70;99.90;;;;;;5043241;28;20522;-64
2022/06/05 07:39:02;;;;;;;12.68;9.23;;;17.90;99.90;;;;;;5038670;28;20036;-63
2022/06/05 07:41:34;;;;;;;12.32;9.27;;;18.60;99.90;;;;;;5045996;28;20044;-62
2022/06/05 07:44:00;;;;;;;13.50;9.43;;;17.40;99.90;;;;;;5011665;28;20124;-62
2022/06/05 07:46:27;;;;;;;14.18;8.45;;;17.00;99.90;;;;;;5014896;28;20056;-63
2022/06/05 07:48:53;;;;;;;11.95;9.18;;;17.00;99.90;;;;;;5034800;28;20627;-63
2022/06/05 07:57:02;;;;;;;11.25;8.57;;;17.40;99.90;;;;;;5033113;28;20490;-63
2022/06/05 07:59:29;;;;;;;13.77;9.18;;;17.40;99.90;;;;;;5052486;28;20041;-62
2022/06/05 08:01:56;;;;;;;11.27;8.10;;;17.60;99.90;;;;;;5032692;28;20048;-63
2022/06/05 08:04:22;;;;;;;11.35;7.65;;;17.50;99.90;;;;;;5014840;28;20120;-62
2022/06/05 08:06:48;;;;;;;10.93;7.95;;;17.60;99.90;;;;;;5032490;28;20112;-63
2022/06/05 08:09:14;;;;;;;10.90;7.78;;;17.70;99.90;;;;;;5032454;28;20076;-63
2022/06/05 08:11:42;;;;;;;10.85;8.30;;;17.70;99.90;;;;;;5052534;28;20037;-62
2022/06/05 08:14:09;;;;;;;9.73;8.25;;;18.30;99.90;;;;;;5034717;28;20172;-63
2022/06/05 08:16:35;;;;;;;10.55;8.48;;;18.20;99.90;;;;;;5034064;28;20029;-63
2022/06/05 08:19:00;;;;;;;12.52;7.80;;;18.30;99.90;;;;;;5052192;28;20037;-62
2022/06/05 08:21:26;;;;;;;11.18;8.25;;;18.30;99.90;;;;;;5033680;28;20039;-63
2022/06/05 08:23:52;;;;;;;10.55;7.53;;;17.90;99.90;;;;;;5034577;28;20056;-63
2022/06/05 08:26:18;;;;;;;10.23;8.43;;;18.40;99.90;;;;;;5052034;28;20546;-63
2022/06/05 08:28:44;;;;;;;10.93;7.75;;;19.40;99.90;;;;;;5052343;28;20044;-63
2022/06/05 08:31:09;;;;;;;9.57;7.63;;;18.30;99.90;;;;;;5052052;28;20037;-63
2022/06/05 08:33:35;;;;;;;13.43;7.47;;;18.20;99.90;;;;;;5052081;28;20116;-63
2022/06/05 08:36:01;;;;;;;9.68;7.85;;;18.50;99.90;;;;;;5033372;28;20025;-62
2022/06/05 08:41:37;;;;;;;12.20;8.17;;;18.30;99.90;;;;;;5034915;28;20042;-63
2022/06/05 08:44:17;;;;;;;10.93;6.90;;;18.40;99.90;;;;;;5015614;28;20286;-63
2022/06/05 08:46:53;;;;;;;8.80;7.90;;;18.40;99.90;;;;;;5046908;28;20040;-63
2022/06/05 08:49:39;;;;;;;12.68;7.10;;;18.60;99.90;;;;;;5035301;28;20041;-63
2022/06/05 08:52:35;;;;;;;12.35;8.05;;;18.60;99.90;;;;;;5013671;28;20061;-63
2022/06/05 08:55:21;;;;;;;12.55;7.78;;;18.60;99.90;;;;;;5018355;28;20037;-63
2022/06/05 08:57:54;;;;;;;9.60;7.20;;;18.80;99.90;;;;;;5033314;28;20099;-63
2022/06/05 09:00:41;;;;;;;8.88;7.28;;;20.20;99.90;;;;;;5016604;28;20041;-63
2022/06/05 09:03:22;;;;;;;10.43;7.00;;;19.00;99.90;;;;;;5014897;28;20445;-63
2022/06/05 09:05:52;;;;;;;10.35;7.95;;;19.20;99.90;;;;;;5025127;28;20110;-63
2022/06/05 09:08:20;;;;;;;10.43;7.30;;;19.20;99.90;;;;;;5010703;28;20045;-63
2022/06/05 09:10:48;;;;;;;8.77;7.13;;;19.20;99.90;;;;;;5029242;28;20565;-63
2022/06/05 09:13:34;;;;;;;9.18;7.03;;;19.20;99.90;;;;;;5047859;28;20247;-63
2022/06/05 09:16:02;;;;;;;9.10;6.07;;;19.50;99.90;;;;;;5031883;28;20554;-64
2022/06/05 09:18:36;;;;;;;10.50;7.00;;;19.40;99.90;;;;;;5011055;28;20041;-64
2022/06/05 09:21:24;;;;;;;8.25;6.18;;;20.90;99.90;;;;;;5031645;28;20041;-64
2022/06/05 09:24:11;;;;;;;7.78;6.65;;;21.40;99.90;;;;;;5035951;28;20106;-64
2022/06/05 09:26:42;;;;;;;11.50;6.63;;;19.90;99.90;;;;;;5017235;28;20041;-64
2022/06/05 09:29:27;;;;;;;10.30;6.60;;;20.60;99.90;;;;;;5027930;28;20090;-64
2022/06/05 09:32:11;;;;;;;8.30;6.55;;;20.30;99.90;;;;;;5026460;28;20037;-64
2022/06/05 09:34:41;;;;;;;9.73;6.47;;;20.40;99.90;;;;;;5026925;28;20045;-64
2022/06/05 09:37:16;;;;;;;9.13;7.18;;;20.50;99.90;;;;;;5028590;28;20055;-64
2022/06/05 09:40:04;;;;;;;9.05;6.07;;;21.50;99.90;;;;;;5046454;28;20567;-64
2022/06/05 09:43:03;;;;;;;9.48;7.25;;;20.50;99.90;;;;;;4998192;28;20482;-64
2022/06/05 09:45:47;;;;;;;11.55;6.43;;;20.30;99.90;;;;;;5013290;28;20131;-64
2022/06/05 09:48:28;;;;;;;7.72;6.93;;;20.70;99.90;;;;;;5035708;28;20048;-64
2022/06/05 09:50:54;;;;;;;9.50;7.18;;;20.50;99.90;;;;;;5025567;28;20045;-64
2022/06/05 09:53:27;;;;;;;9.10;7.18;;;21.00;99.90;;;;;;5030023;28;20052;-64
2022/06/05 09:56:06;;;;;;;7.50;6.35;;;20.50;99.90;;;;;;5012827;28;20053;-64
2022/06/05 09:59:17;;;;;;;9.05;6.88;;;20.60;99.90;;;;;;5017028;28;20044;-64
2022/06/05 10:01:59;;;;;;;8.68;6.88;;;20.30;99.90;;;;;;5013111;28;20057;-64
2022/06/05 10:04:29;;;;;;;7.47;6.22;;;21.40;99.90;;;;;;5036489;28;20048;-64
2022/06/05 10:07:06;;;;;;;7.95;6.38;;;20.50;99.90;;;;;;5027213;28;20045;-64
2022/06/05 10:09:33;;;;;;;9.18;7.57;;;21.90;99.90;;;;;;5016238;28;20044;-64
2022/06/05 10:12:03;;;;;;;7.95;5.85;;;20.60;99.90;;;;;;5027514;28;20120;-65
2022/06/05 10:14:32;;;;;;;8.25;6.47;;;20.20;99.90;;;;;;5026114;28;20083;-65
2022/06/05 10:17:23;;;;;;;9.60;6.28;;;21.70;99.90;;;;;;5027636;28;20491;-65
2022/06/05 10:20:29;;;;;;;10.52;6.68;;;20.80;99.90;;;;;;5033398;28;20483;-64
2022/06/05 10:23:44;;;;;;;9.52;6.15;;;20.60;99.90;;;;;;4987159;28;20061;-65
2022/06/05 10:26:31;;;;;;;10.93;6.97;;;20.40;99.90;;;;;;4928300;29;20043;-64
2022/06/05 10:29:15;;;;;;;7.22;5.80;;;20.80;99.90;;;;;;4928143;29;20122;-64
2022/06/05 10:31:56;;;;;;;10.10;6.88;;;21.60;99.90;;;;;;5023029;28;20087;-64
2022/06/05 10:34:22;;;;;;;9.40;6.10;;;20.70;99.90;;;;;;5046229;28;20426;-65
2022/06/05 10:37:18;;;;;;;9.93;6.30;;;20.80;99.90;;;;;;5028931;28;20058;-64
2022/06/05 10:39:57;;;;;;;8.35;6.10;;;21.00;99.90;;;;;;5024350;28;20061;-65
2022/06/05 10:42:38;;;;;;;9.30;6.53;;;20.90;99.90;;;;;;5027726;28;20037;-64
2022/06/05 10:45:23;;;;;;;8.68;6.28;;;20.80;99.90;;;;;;5027716;28;20061;-64
2022/06/05 10:48:07;;;;;;;8.57;5.90;;;21.10;99.90;;;;;;5046002;28;20585;-64
2022/06/05 10:50:55;;;;;;;8.20;5.50;;;21.40;99.90;;;;;;5022445;28;20396;-64
2022/06/05 10:53:31;;;;;;;10.50;6.32;;;21.10;99.90;;;;;;5047011;28;20037;-64
2022/06/05 10:56:15;;;;;;;7.05;5.70;;;20.80;99.90;;;;;;5049146;28;20067;-63
2022/06/05 10:59:11;;;;;;;7.63;5.63;;;21.80;99.90;;;;;;5044673;28;20055;-62
2022/06/05 11:01:53;;;;;;;6.88;6.20;;;20.80;99.90;;;;;;5031749;28;20446;-63
2022/06/05 11:04:40;;;;;;;7.72;5.40;;;20.80;99.90;;;;;;5048640;28;20090;-63
2022/06/05 11:07:29;;;;;;;7.47;5.68;;;21.00;99.90;;;;;;5023401;28;20522;-64
2022/06/05 11:10:05;;;;;;;6.80;5.70;;;21.00;99.90;;;;;;5040349;28;20045;-64
2022/06/05 11:15:49;;;;;;;7.60;5.93;;;22.10;99.90;;;;;;5024037;28;20048;-65
2022/06/05 11:18:41;;;;;;;7.80;5.47;;;21.10;99.90;;;;;;5026412;28;20124;-65
2022/06/05 11:21:09;;;;;;;6.45;5.75;;;21.80;99.90;;;;;;5015141;28;20821;-67
2022/06/05 11:23:38;;;;;;;7.22;6.22;;;21.20;99.90;;;;;;5033915;28;20439;-66
2022/06/05 11:26:10;;;;;;;6.93;5.85;;;21.00;99.90;;;;;;5019834;28;20056;-66
2022/06/05 11:29:07;;;;;;;7.85;5.65;;;21.60;99.90;;;;;;5020852;28;20079;-66
2022/06/05 11:31:39;;;;;;;7.72;5.78;;;20.90;99.90;;;;;;5019726;28;20491;-66
2022/06/05 11:34:28;;;;;;;8.75;6.22;;;21.70;99.90;;;;;;5020244;28;20049;-65
2022/06/05 11:37:10;;;;;;;9.07;6.18;;;20.90;99.90;;;;;;5011382;28;20144;-65
2022/06/05 11:39:54;;;;;;;7.13;6.13;;;21.30;99.90;;;;;;5019935;28;20044;-66
2022/06/05 11:42:43;;;;;;;7.30;6.27;;;21.30;99.90;;;;;;5034046;28;20499;-67
2022/06/05 11:45:59;;;;;;;7.82;5.90;;;22.50;99.90;;;;;;5011618;28;20716;-66
2022/06/05 11:48:30;;;;;;;9.60;5.78;;;21.30;99.90;;;;;;5010276;28;20568;-64
2022/06/05 11:51:09;;;;;;;7.68;5.97;;;21.30;99.90;;;;;;5016015;28;20060;-64
2022/06/05 11:53:50;;;;;;;6.95;6.25;;;21.20;99.90;;;;;;5003299;28;20041;-64
2022/06/05 11:56:24;;;;;;;6.72;5.82;;;21.30;99.90;;;;;;5023799;28;20416;-65
2022/06/05 11:59:04;;;;;;;8.70;5.70;;;22.80;99.90;;;;;;5022578;28;20538;-66
2022/06/05 12:01:35;;;;;;;7.85;5.88;;;22.60;99.90;;;;;;5024450;28;20557;-64
2022/06/05 12:04:17;;;;;;;11.82;6.18;;;22.30;99.90;;;;;;5024210;28;20044;-64
2022/06/05 12:06:54;;;;;;;7.05;5.57;;;21.90;99.90;;;;;;5012455;28;20072;-65
2022/06/05 12:09:23;;;;;;;6.53;5.68;;;21.70;99.90;;;;;;5017441;28;20036;-65
2022/06/05 12:12:13;;;;;;;11.73;6.50;;;21.70;99.90;;;;;;5028127;28;20406;-63
2022/06/05 12:15:14;;;;;;;6.60;5.80;;;22.00;99.90;;;;;;5036298;28;20040;-64
2022/06/05 12:18:04;;;;;;;7.70;6.03;;;21.50;99.90;;;;;;5016461;28;20045;-64
2022/06/05 12:20:49;;;;;;;6.18;5.57;;;21.60;99.90;;;;;;5030432;28;20041;-63
2022/06/05 12:23:30;;;;;;;6.80;6.13;;;21.60;99.90;;;;;;5015637;28;20048;-65
2022/06/05 12:26:22;;;;;;;8.27;6.03;;;21.80;99.90;;;;;;5032829;28;20437;-67
2022/06/05 12:29:10;;;;;;;10.13;6.38;;;21.80;99.90;;;;;;5023372;28;20037;-64
2022/06/05 12:31:49;;;;;;;8.55;6.00;;;21.70;99.90;;;;;;5004867;28;20046;-64
2022/06/05 12:34:24;;;;;;;8.75;6.05;;;21.90;99.90;;;;;;5036543;28;20556;-64
2022/06/05 12:37:05;;;;;;;9.95;5.97;;;23.30;99.90;;;;;;5035020;28;20045;-62
2022/06/05 12:39:43;;;;;;;6.57;5.88;;;21.70;99.90;;;;;;5012473;28;20080;-65
2022/06/05 12:42:23;;;;;;;6.47;5.63;;;23.00;99.90;;;;;;5030108;28;20091;-64
2022/06/05 12:44:54;;;;;;;7.18;6.25;;;21.70;99.90;;;;;;5010403;28;20099;-64
2022/06/05 12:47:51;;;;;;;7.30;6.13;;;23.00;99.90;;;;;;5027643;28;20491;-65
2022/06/05 12:50:35;;;;;;;8.25;6.55;;;22.10;99.90;;;;;;5012784;28;20499;-65
2022/06/05 12:53:24;;;;;;;9.13;5.93;;;21.90;99.90;;;;;;5012094;28;20059;-66
2022/06/05 12:55:56;;;;;;;14.63;6.75;;;21.60;99.90;;;;;;5011775;28;20076;-65
2022/06/05 12:58:39;;;;;;;6.88;6.10;;;21.90;99.90;;;;;;5029573;28;20107;-66
2022/06/05 13:01:43;;;;;;;6.97;5.90;;;21.90;99.90;;;;;;5014946;28;20116;-66
2022/06/05 13:04:38;;;;;;;7.47;5.97;;;21.90;99.90;;;;;;4977055;28;20064;-65
2022/06/05 13:07:05;;;;;;;7.07;5.57;;;21.70;99.90;;;;;;5018339;28;20091;-66
2022/06/05 13:09:48;;;;;;;6.22;5.60;;;21.70;99.90;;;;;;5034272;28;20041;-66
2022/06/05 13:12:23;;;;;;;8.85;6.50;;;21.70;99.90;;;;;;5046500;28;20079;-64
2022/06/05 13:15:20;;;;;;;13.02;5.80;;;23.00;99.90;;;;;;5027574;28;20040;-65
2022/06/05 13:17:58;;;;;;;8.43;6.25;;;21.80;99.90;;;;;;5046441;28;20091;-65
2022/06/05 13:20:39;;;;;;;6.65;6.05;;;21.70;99.90;;;;;;5027675;28;20048;-65
2022/06/05 13:23:11;;;;;;;7.85;5.88;;;21.90;99.90;;;;;;5046537;28;20087;-66
2022/06/05 13:26:06;;;;;;;8.23;6.55;;;21.60;99.90;;;;;;5031280;28;20555;-65
2022/06/05 13:28:47;;;;;;;;;;;21.70;99.90;;;;;;5048974;28;20063;-66
2022/06/05 13:31:32;;;;;;;6.85;6.15;;;21.90;99.90;;;;;;5031193;28;19929;-64
2022/06/05 13:34:02;;;;;;;;;;;22.30;99.90;;;;;;5032211;28;20545;-65
2022/06/05 13:36:35;;;;;;;6.22;5.63;;;23.10;99.90;;;;;;5050383;28;19923;-65
2022/06/05 13:39:15;;;;;;;6.68;4.93;;;22.00;99.90;;;;;;5049318;28;20403;-64
2022/06/05 13:41:45;;;;;;;8.38;6.10;;;22.00;99.90;;;;;;5049894;28;20044;-65